KCVN/CVN METAR and TAF weather

Enter ICAO airport designator
Station Type Date Time Source
KCVN METAR 2022/09/26 08:56 UTC NOAA

KCVN 260856Z AUTO 06007KT 10SM CLR 12/04 A3030 RMK AO2 SLP226 T01220044 58002


Station Type Date Time Source
KCVN Decoded METAR 2022/09/26 08:56 UTC NOAA

Clovis, Clovis Municipal Airport, NM, United States (KCVN) 34-26N 103-05W
Sep 26, 2022 - 04:56 AM EDT / 2022.09.26 0856 UTC
Wind: from the ENE (060 degrees) at 8 MPH (7 KT):0
Visibility: 10 mile(s):0
Sky conditions: clear
Temperature: 54.0 F (12.2 C)
Dew Point: 39.9 F (4.4 C)
Relative Humidity: 58%
Pressure (altimeter): 30.3 in. Hg (1026 hPa)
Pressure tendency: 0.01 inches (0.2 hPa) lower than three hours ago
ob: KCVN 260856Z AUTO 06007KT 10SM CLR 12/04 A3030 RMK AO2 SLP226 T01220044 58002
cycle: 9

Station Type Date Time Source
KCVN TAF UTC NOAA

Error!

Example: see airport list